Time;durP1;ratioP1;P1;durP2;ratioP2;P2;SDS_P1;SDS_P2;PMS_P1;PMS_P2;Temp;Humidity;BMP_temperature;BMP_pressure;BME280_temperature;BME280_humidity;BME280_pressure;Samples;Min_cycle;Max_cycle;Signal;HPM_P1;HPM_P2
2023/08/04 00:00:18;;;;;;;;;9.25;7.00;;;;;18.41;59.80;100731.22;5038208;28;47204;-60
2023/08/04 00:02:44;;;;;;;;;8.75;8.00;;;;;18.39;59.52;100733.97;5040409;28;45475;-60
2023/08/04 00:05:09;;;;;;;;;7.00;6.25;;;;;18.39;59.63;100741.06;5040107;28;45288;-61
2023/08/04 00:07:36;;;;;;;;;6.50;5.50;;;;;18.38;59.76;100734.91;5038780;28;46174;-60
2023/08/04 00:10:03;;;;;;;;;6.00;6.00;;;;;18.37;59.62;100738.50;5038476;28;45451;-60
2023/08/04 00:12:28;;;;;;;;;9.00;6.00;;;;;18.37;59.77;100741.16;5040315;28;45473;-60
2023/08/04 00:14:54;;;;;;;;;10.00;8.50;;;;;18.37;59.88;100740.31;5039832;28;45379;-61
2023/08/04 00:17:19;;;;;;;;;5.00;5.00;;;;;18.38;59.92;100744.66;5040044;28;46304;-60
2023/08/04 00:19:44;;;;;;;;;8.25;7.00;;;;;18.34;59.87;100743.97;5039979;28;45302;-60
2023/08/04 00:22:09;;;;;;;;;9.00;8.25;;;;;18.35;59.57;100745.66;5039593;28;51751;-60
2023/08/04 00:24:35;;;;;;;;;7.25;7.00;;;;;18.34;59.75;100746.63;5039713;28;45285;-60
2023/08/04 00:27:01;;;;;;;;;7.50;7.00;;;;;18.34;59.81;100749.28;5021797;28;47952;-60
2023/08/04 00:29:27;;;;;;;;;6.00;6.00;;;;;18.32;59.72;100745.81;5039847;28;45709;-60
2023/08/04 00:31:52;;;;;;;;;3.75;3.00;;;;;18.32;59.92;100748.50;5040162;28;45452;-60
2023/08/04 00:34:18;;;;;;;;;9.00;8.00;;;;;18.31;59.85;100750.28;5021909;28;45267;-60
2023/08/04 00:36:49;;;;;;;;;6.00;6.00;;;;;18.32;59.57;100759.13;5039749;28;46098;-60
2023/08/04 00:39:15;;;;;;;;;8.00;7.75;;;;;18.28;59.85;100749.56;5039573;28;45301;-60
2023/08/04 00:41:40;;;;;;;;;9.75;7.75;;;;;18.26;59.72;100746.97;5039825;28;45242;-60
2023/08/04 00:44:06;;;;;;;;;8.00;7.25;;;;;18.27;59.60;100753.16;5039626;28;45254;-60
2023/08/04 00:46:31;;;;;;;;;5.50;5.00;;;;;18.26;59.83;100748.78;5039611;28;46293;-60
2023/08/04 00:48:59;;;;;;;;;9.50;7.75;;;;;18.24;59.64;100754.16;5039558;28;45254;-60
2023/08/04 00:51:24;;;;;;;;;10.00;8.00;;;;;18.24;59.53;100762.16;5039869;28;45246;-60
2023/08/04 00:53:50;;;;;;;;;6.75;6.25;;;;;18.23;59.88;100754.25;5039251;28;45235;-60
2023/08/04 00:56:15;;;;;;;;;6.25;6.25;;;;;18.15;59.64;100752.78;5021562;28;47303;-60
2023/08/04 00:58:41;;;;;;;;;8.50;7.75;;;;;18.21;59.91;100767.59;5039562;28;45439;-60
2023/08/04 01:01:06;;;;;;;;;7.00;6.50;;;;;18.21;59.54;100761.41;5039713;28;45500;-60
2023/08/04 01:03:32;;;;;;;;;10.50;7.75;;;;;18.20;59.87;100765.88;5041957;28;45212;-60
2023/08/04 01:06:11;;;;;;;;;6.25;6.25;;;;;18.19;59.93;100758.84;5042873;28;46233;-61
2023/08/04 01:08:49;;;;;;;;;8.00;6.50;;;;;18.18;59.61;100757.94;5042672;28;45357;-64
2023/08/04 01:11:19;;;;;;;;;11.00;7.00;;;;;18.15;59.87;100755.44;5043005;28;45229;-60
2023/08/04 01:13:47;;;;;;;;;9.75;8.50;;;;;18.17;59.86;100761.53;5042787;28;45407;-60
2023/08/04 01:16:12;;;;;;;;;9.00;6.00;;;;;18.15;59.76;100757.22;5042665;28;47071;-60
2023/08/04 01:18:38;;;;;;;;;8.25;8.25;;;;;18.12;59.88;100749.41;5042848;28;45256;-60
2023/08/04 01:21:04;;;;;;;;;7.75;7.75;;;;;18.13;59.58;100757.31;5042873;28;47009;-60
2023/08/04 01:23:30;;;;;;;;;8.00;8.00;;;;;18.13;59.84;100757.31;5042545;28;45242;-60
2023/08/04 01:25:56;;;;;;;;;4.50;3.75;;;;;18.11;59.70;100753.88;5024597;28;46218;-60
2023/08/04 01:28:23;;;;;;;;;7.00;7.00;;;;;18.12;59.70;100760.88;5042647;28;45221;-60
2023/08/04 01:30:52;;;;;;;;;6.25;6.25;;;;;18.11;60.01;100761.84;5042709;28;45319;-61
2023/08/04 01:33:17;;;;;;;;;8.25;6.00;;;;;18.11;59.72;100759.19;5042654;28;45315;-61
2023/08/04 01:35:43;;;;;;;;;7.50;7.25;;;;;18.11;59.83;100755.66;5042252;28;46103;-61
2023/08/04 01:38:09;;;;;;;;;7.00;7.00;;;;;18.09;59.72;100760.19;5030727;28;45194;-61
2023/08/04 01:40:35;;;;;;;;;8.50;8.50;;;;;18.11;59.69;100766.28;5026208;28;45357;-61
2023/08/04 01:43:00;;;;;;;;;7.75;7.00;;;;;18.10;59.67;100761.91;5022588;28;45268;-61
2023/08/04 01:45:25;;;;;;;;;10.25;8.00;;;;;18.10;60.08;100759.22;5022315;28;45271;-61
2023/08/04 01:47:51;;;;;;;;;7.00;7.00;;;;;18.09;59.92;100761.03;5022339;28;46035;-61
2023/08/04 01:50:17;;;;;;;;;8.25;7.25;;;;;18.08;59.72;100763.78;5022546;28;45231;-61
2023/08/04 01:52:43;;;;;;;;;7.75;7.00;;;;;18.08;59.79;100766.44;5022480;28;45168;-61
2023/08/04 01:55:08;;;;;;;;;2.75;2.75;;;;;18.07;59.41;100768.22;5021841;28;46280;-61
2023/08/04 01:57:33;;;;;;;;;9.25;8.00;;;;;18.06;59.91;100779.78;5022324;28;45358;-61
2023/08/04 01:59:59;;;;;;;;;6.00;6.00;;;;;18.05;59.70;100770.09;5037732;28;45307;-61
2023/08/04 02:02:24;;;;;;;;;8.00;7.50;;;;;18.05;59.99;100782.50;5042288;28;45571;-61
2023/08/04 02:04:50;;;;;;;;;9.25;8.00;;;;;18.04;59.76;100776.34;5042033;28;46981;-61
2023/08/04 02:07:15;;;;;;;;;10.00;8.50;;;;;18.02;59.53;100772.88;5042074;28;45324;-61
2023/08/04 02:09:41;;;;;;;;;9.00;9.00;;;;;18.03;59.69;100772.81;5041800;28;45365;-61
2023/08/04 02:12:07;;;;;;;;;7.25;7.25;;;;;18.03;59.93;100774.63;5041832;28;45301;-61
2023/08/04 02:14:33;;;;;;;;;8.50;7.00;;;;;18.01;60.01;100782.66;5041293;28;46842;-61
2023/08/04 02:16:59;;;;;;;;;7.50;7.50;;;;;18.01;59.81;100782.66;5041910;28;45504;-61
2023/08/04 02:19:24;;;;;;;;;10.00;8.00;;;;;17.98;60.14;100780.13;5042111;28;45178;-61
2023/08/04 02:21:50;;;;;;;;;9.00;8.00;;;;;17.98;60.05;100784.59;5041774;28;45482;-61
2023/08/04 02:24:16;;;;;;;;;10.00;9.00;;;;;17.95;60.14;100780.28;5041043;28;46357;-61
2023/08/04 02:26:44;;;;;;;;;15.00;13.25;;;;;17.95;60.07;100790.03;5041563;28;45330;-61
2023/08/04 02:29:09;;;;;;;;;11.00;11.00;;;;;17.93;60.00;100794.53;5041787;28;45273;-61
2023/08/04 02:31:34;;;;;;;;;7.75;7.00;;;;;17.91;60.07;100791.06;5041685;28;45487;-61
2023/08/04 02:34:00;;;;;;;;;14.00;10.25;;;;;17.90;60.11;100794.66;5041650;28;46192;-61
2023/08/04 02:36:25;;;;;;;;;10.00;8.00;;;;;17.88;60.03;100797.38;5041353;28;47072;-61
2023/08/04 02:38:51;;;;;;;;;7.75;7.00;;;;;17.87;60.14;100795.66;5041545;28;45317;-61
2023/08/04 02:41:16;;;;;;;;;8.00;8.00;;;;;17.87;60.17;100799.19;5041572;28;45632;-61
2023/08/04 02:43:42;;;;;;;;;8.50;8.50;;;;;17.86;60.16;100794.81;5023708;28;46097;-61
2023/08/04 02:46:10;;;;;;;;;7.25;7.00;;;;;17.86;60.03;100797.47;5041621;28;45471;-61
2023/08/04 02:48:36;;;;;;;;;6.00;6.00;;;;;17.83;60.09;100797.59;5041380;28;45148;-60
2023/08/04 02:51:12;;;;;;;;;6.25;6.25;;;;;17.84;60.10;100796.66;5041421;28;45425;-61
2023/08/04 02:53:42;;;;;;;;;6.75;6.50;;;;;17.85;60.17;100800.19;5041157;28;46117;-61
2023/08/04 02:56:17;;;;;;;;;7.25;7.00;;;;;17.84;60.14;100804.63;5041092;28;45340;-61
2023/08/04 02:58:44;;;;;;;;;9.75;8.25;;;;;17.82;59.99;100801.19;5041346;28;45387;-61
2023/08/04 03:01:11;;;;;;;;;6.50;5.00;;;;;17.83;59.92;100799.38;5041373;28;45352;-61
2023/08/04 03:03:36;;;;;;;;;7.25;7.25;;;;;17.83;60.21;100804.72;5040957;28;45474;-61
2023/08/04 03:06:02;;;;;;;;;11.00;10.50;;;;;17.82;60.27;100805.63;5041253;28;45203;-61
2023/08/04 03:08:29;;;;;;;;;9.75;7.00;;;;;17.81;60.27;100795.91;5040900;28;45400;-61
2023/08/04 03:10:55;;;;;;;;;11.00;8.25;;;;;17.80;60.04;100803.03;5041043;28;45321;-61
2023/08/04 03:13:21;;;;;;;;;6.25;6.25;;;;;17.78;60.08;100798.72;5040661;28;46275;-61
2023/08/04 03:15:54;;;;;;;;;9.50;7.25;;;;;17.79;60.30;100805.78;5041099;28;45357;-61
2023/08/04 03:18:19;;;;;;;;;8.50;5.25;;;;;17.78;60.36;100804.91;5040931;28;45277;-61
2023/08/04 03:20:44;;;;;;;;;9.50;8.25;;;;;17.75;60.64;100804.16;5040925;28;45506;-61
2023/08/04 03:23:09;;;;;;;;;9.25;8.25;;;;;17.78;60.41;100815.53;5039961;28;60947;-61
2023/08/04 03:25:35;;;;;;;;;9.00;8.00;;;;;17.77;60.17;100819.09;5040041;28;45343;-61
2023/08/04 03:28:00;;;;;;;;;7.25;7.25;;;;;17.74;60.35;100816.59;5039304;28;45542;-61
2023/08/04 03:30:26;;;;;;;;;9.50;8.50;;;;;17.76;60.40;100819.19;5040869;28;45258;-61
2023/08/04 03:32:51;;;;;;;;;11.00;8.50;;;;;17.73;60.35;100816.66;5040634;28;46077;-61
2023/08/04 03:35:17;;;;;;;;;8.50;8.50;;;;;17.71;60.38;100825.56;5040706;28;45367;-61
2023/08/04 03:37:42;;;;;;;;;10.25;8.50;;;;;17.72;60.52;100837.03;5040746;28;45361;-61
2023/08/04 03:40:08;;;;;;;;;7.75;7.75;;;;;17.72;60.33;100834.38;5040382;28;45611;-61
2023/08/04 03:42:38;;;;;;;;;10.00;8.50;;;;;17.72;60.40;100850.34;5040475;28;45233;-61
2023/08/04 03:45:07;;;;;;;;;11.50;8.50;;;;;17.72;60.32;100842.38;5040285;28;45334;-61
2023/08/04 03:47:34;;;;;;;;;8.00;8.00;;;;;17.67;60.23;100837.25;5040512;28;45439;-61
2023/08/04 03:50:01;;;;;;;;;11.25;10.25;;;;;17.71;60.81;100848.63;5040344;28;45431;-61
2023/08/04 03:52:26;;;;;;;;;7.50;7.50;;;;;17.68;60.52;100844.31;5040294;28;46201;-61
2023/08/04 03:54:51;;;;;;;;;9.75;9.75;;;;;17.68;60.38;100854.06;5039899;28;45227;-61
2023/08/04 03:57:17;;;;;;;;;13.75;10.75;;;;;17.68;60.53;100854.94;5040530;28;45157;-61
2023/08/04 03:59:42;;;;;;;;;10.50;9.00;;;;;17.66;60.54;100855.91;5040519;28;45196;-61
2023/08/04 04:02:07;;;;;;;;;11.75;10.75;;;;;17.68;60.48;100856.72;5039828;28;56991;-61
2023/08/04 04:04:32;;;;;;;;;18.00;11.50;;;;;17.66;60.58;100855.91;5040400;28;45420;-61
2023/08/04 04:06:58;;;;;;;;;9.50;9.00;;;;;17.67;60.53;100863.84;5040331;28;45543;-61
2023/08/04 04:09:23;;;;;;;;;13.50;9.00;;;;;17.67;60.59;100874.47;5040033;28;45478;-61
2023/08/04 04:11:48;;;;;;;;;11.00;10.75;;;;;17.66;60.65;100864.75;5039458;28;58650;-61
2023/08/04 04:14:14;;;;;;;;;9.75;8.50;;;;;17.65;60.59;100868.34;5040343;28;45293;-61
2023/08/04 04:16:39;;;;;;;;;10.50;10.25;;;;;17.63;60.58;100874.66;5040131;28;45526;-61
2023/08/04 04:19:04;;;;;;;;;12.25;12.00;;;;;17.60;60.88;100875.63;5039996;28;47795;-61
2023/08/04 04:21:29;;;;;;;;;12.75;10.25;;;;;17.61;60.71;100882.69;5039801;28;45336;-61
2023/08/04 04:23:55;;;;;;;;;10.25;8.00;;;;;17.60;60.78;100877.44;5039527;28;46417;-61
2023/08/04 04:26:20;;;;;;;;;10.25;9.50;;;;;17.59;60.77;100873.06;5039890;28;45473;-61
2023/08/04 04:28:45;;;;;;;;;13.50;10.50;;;;;17.59;60.81;100878.38;5040024;28;45311;-61
2023/08/04 04:31:11;;;;;;;;;11.25;10.25;;;;;17.58;60.88;100880.16;5039267;28;59983;-61
2023/08/04 04:33:36;;;;;;;;;11.25;9.00;;;;;17.57;60.72;100869.59;5039868;28;45274;-61
2023/08/04 04:36:01;;;;;;;;;13.25;11.75;;;;;17.58;60.89;100876.63;5039763;28;45415;-61
2023/08/04 04:38:28;;;;;;;;;12.00;10.75;;;;;17.55;60.61;100880.28;5044565;28;49533;-61
2023/08/04 04:41:01;;;;;;;;;13.75;10.50;;;;;17.55;61.10;100881.13;5046048;28;46312;-61
2023/08/04 04:43:27;;;;;;;;;15.00;11.25;;;;;17.55;61.05;100894.41;5046399;28;45317;-61
2023/08/04 04:45:53;;;;;;;;;12.00;11.25;;;;;17.53;61.15;100900.72;5046369;28;45294;-61
2023/08/04 04:48:20;;;;;;;;;14.50;12.75;;;;;17.53;60.93;100896.28;5046171;28;45177;-61
2023/08/04 04:50:45;;;;;;;;;16.50;13.75;;;;;17.53;61.02;100892.75;5046127;28;45263;-61
2023/08/04 04:53:11;;;;;;;;;13.25;12.50;;;;;17.49;61.32;100899.97;5046099;28;45291;-61
2023/08/04 04:55:37;;;;;;;;;13.25;12.00;;;;;17.50;61.34;100899.06;5046268;28;45546;-60
2023/08/04 04:58:02;;;;;;;;;20.50;15.25;;;;;17.49;61.18;100915.91;5045776;28;55973;-60
2023/08/04 05:00:28;;;;;;;;;16.00;14.25;;;;;17.50;61.23;100908.84;5046009;28;46139;-61
2023/08/04 05:02:53;;;;;;;;;14.00;13.00;;;;;17.49;61.40;100902.63;5046382;28;45253;-61
2023/08/04 05:05:18;;;;;;;;;17.25;15.00;;;;;17.50;61.41;100911.50;5046178;28;45346;-60
2023/08/04 05:07:44;;;;;;;;;19.75;15.75;;;;;17.50;61.36;100904.38;5046189;28;45540;-60
2023/08/04 05:10:09;;;;;;;;;14.50;13.25;;;;;17.50;61.59;100912.34;5045508;28;45488;-60
2023/08/04 05:12:35;;;;;;;;;24.75;23.75;;;;;17.50;61.60;100912.34;5045958;28;45313;-60
2023/08/04 05:15:00;;;;;;;;;9.25;9.00;;;;;17.52;61.42;100920.25;5046049;28;45523;-60
2023/08/04 05:17:26;;;;;;;;;16.25;14.50;;;;;17.52;61.20;100913.16;5046084;28;45569;-60
2023/08/04 05:19:51;;;;;;;;;22.75;17.25;;;;;17.53;61.61;100914.91;5045766;28;45999;-60
2023/08/04 05:22:16;;;;;;;;;19.25;15.25;;;;;17.53;61.55;100920.22;5024537;28;45412;-60
2023/08/04 05:24:42;;;;;;;;;15.00;14.00;;;;;17.54;61.62;100913.09;5025816;28;45336;-60
2023/08/04 05:27:08;;;;;;;;;15.25;13.50;;;;;17.54;61.77;100913.09;5025613;28;49220;-60
2023/08/04 05:29:33;;;;;;;;;14.50;13.75;;;;;17.57;61.57;100930.69;5025596;28;46209;-60
2023/08/04 05:31:59;;;;;;;;;15.25;11.25;;;;;17.55;61.60;100926.31;5025720;28;45403;-60
2023/08/04 05:34:24;;;;;;;;;19.25;14.25;;;;;17.59;61.77;100937.69;5025779;28;45185;-60
2023/08/04 05:36:49;;;;;;;;;24.00;17.50;;;;;17.54;61.68;100927.22;5025970;28;45261;-60
2023/08/04 05:39:15;;;;;;;;;13.75;12.50;;;;;17.59;61.52;100937.69;5025454;28;46314;-60
2023/08/04 05:41:42;;;;;;;;;15.00;10.50;;;;;17.63;61.65;100936.63;5025756;28;45212;-60
2023/08/04 05:44:08;;;;;;;;;14.25;13.75;;;;;17.64;61.41;100938.34;5025697;28;45549;-60
2023/08/04 05:46:33;;;;;;;;;17.50;14.00;;;;;17.67;61.59;100942.69;5025495;28;50392;-60
2023/08/04 05:48:59;;;;;;;;;11.75;9.75;;;;;17.67;62.01;100940.00;5022185;28;45528;-60
2023/08/04 05:51:24;;;;;;;;;15.75;14.00;;;;;17.70;61.74;100947.88;5022312;28;51358;-60
2023/08/04 05:53:49;;;;;;;;;17.00;14.75;;;;;17.69;61.78;100954.13;5022280;28;45531;-60
2023/08/04 05:56:15;;;;;;;;;13.50;12.25;;;;;17.70;62.09;100955.84;5022293;28;45253;-61
2023/08/04 05:58:40;;;;;;;;;18.00;16.25;;;;;17.66;62.01;100946.25;5021773;28;50457;-60
2023/08/04 06:01:06;;;;;;;;;12.50;11.50;;;;;17.71;62.05;100957.59;5030019;28;46090;-60
2023/08/04 06:03:31;;;;;;;;;17.75;12.25;;;;;17.71;62.08;100955.78;5022091;28;45491;-60
2023/08/04 06:05:57;;;;;;;;;10.25;10.00;;;;;17.71;61.99;100957.59;5022032;28;45315;-60
2023/08/04 06:08:22;;;;;;;;;14.50;13.50;;;;;17.73;62.02;100961.03;5021647;28;46038;-60
2023/08/04 06:10:47;;;;;;;;;13.50;11.50;;;;;17.75;61.83;100964.50;5022038;28;45356;-60
2023/08/04 06:13:13;;;;;;;;;17.75;14.25;;;;;17.76;61.78;100971.56;5022038;28;45373;-61
2023/08/04 06:15:38;;;;;;;;;18.75;14.00;;;;;17.78;62.09;100969.69;5022228;28;45244;-60
2023/08/04 06:18:04;;;;;;;;;14.50;13.00;;;;;17.80;61.84;100962.53;5021820;28;45313;-60
2023/08/04 06:20:29;;;;;;;;;15.50;13.25;;;;;17.80;62.06;100970.50;5021933;28;45235;-60
2023/08/04 06:22:54;;;;;;;;;19.50;16.50;;;;;17.80;62.05;100973.16;5033239;28;45441;-60
2023/08/04 06:25:20;;;;;;;;;16.50;15.00;;;;;17.83;62.12;100977.47;5041704;28;45424;-60
2023/08/04 06:27:45;;;;;;;;;18.00;14.50;;;;;17.83;62.12;100969.50;5041633;28;45296;-61
2023/08/04 06:30:10;;;;;;;;;14.25;13.50;;;;;17.86;62.03;100980.00;5041723;28;45275;-61
2023/08/04 06:32:36;;;;;;;;;18.25;15.50;;;;;17.85;62.08;100988.91;5041772;28;45236;-60
2023/08/04 06:35:01;;;;;;;;;15.75;14.25;;;;;17.87;62.20;100992.38;5041340;28;49783;-61
2023/08/04 06:37:27;;;;;;;;;17.25;14.00;;;;;17.91;61.86;100994.00;5041451;28;46267;-61
2023/08/04 06:39:52;;;;;;;;;16.50;14.75;;;;;17.96;62.35;101001.78;5040966;28;53133;-61
2023/08/04 06:42:19;;;;;;;;;16.50;14.25;;;;;17.98;62.30;100997.28;5041537;28;45218;-61
2023/08/04 06:44:45;;;;;;;;;15.75;13.75;;;;;18.01;61.95;101002.47;5041483;28;45751;-61
2023/08/04 06:47:11;;;;;;;;;16.00;14.75;;;;;18.04;62.36;100997.03;5041175;28;45262;-61
2023/08/04 06:49:36;;;;;;;;;14.00;12.00;;;;;18.06;62.33;100996.97;5041281;28;45269;-60
2023/08/04 06:52:02;;;;;;;;;15.00;13.00;;;;;18.09;61.96;100997.69;5041449;28;45281;-61
2023/08/04 06:54:28;;;;;;;;;13.50;12.50;;;;;18.12;62.19;101002.03;5041228;28;45316;-61
2023/08/04 06:56:53;;;;;;;;;11.50;11.50;;;;;18.15;62.15;100997.44;5041085;28;45874;-60
2023/08/04 06:59:19;;;;;;;;;19.50;14.25;;;;;18.19;62.25;100998.19;5041260;28;45373;-61
2023/08/04 07:01:44;;;;;;;;;17.50;14.25;;;;;18.24;61.89;101006.84;5041152;28;45218;-61
2023/08/04 07:04:09;;;;;;;;;14.25;14.00;;;;;18.28;62.24;101013.75;5041058;28;45247;-60
2023/08/04 07:06:34;;;;;;;;;13.25;13.25;;;;;18.31;62.16;101008.31;5041106;28;45238;-61
2023/08/04 07:09:00;;;;;;;;;15.25;15.00;;;;;18.34;61.89;101010.84;5038663;28;47409;-61
2023/08/04 07:11:25;;;;;;;;;19.25;18.25;;;;;18.39;62.10;101018.63;5041091;28;45314;-60
2023/08/04 07:13:50;;;;;;;;;15.75;15.75;;;;;18.41;61.93;101011.44;5040889;28;45682;-61
2023/08/04 07:16:16;;;;;;;;;18.50;14.00;;;;;18.46;62.33;101024.53;5016518;28;47309;-61
2023/08/04 07:18:41;;;;;;;;;22.00;18.25;;;;;18.50;62.05;101026.13;5021043;28;45313;-61
2023/08/04 07:21:08;;;;;;;;;22.00;18.50;;;;;18.50;62.03;101016.38;5021162;28;45244;-61
2023/08/04 07:23:33;;;;;;;;;16.25;15.25;;;;;18.55;62.12;101018.81;5020668;28;45571;-61
2023/08/04 07:25:59;;;;;;;;;20.50;16.50;;;;;18.57;62.22;101026.75;5002891;28;46079;-61
2023/08/04 07:28:24;;;;;;;;;26.25;18.25;;;;;18.60;62.07;101031.94;5020843;28;45357;-62
2023/08/04 07:30:50;;;;;;;;;17.25;17.25;;;;;18.63;62.20;101030.00;5021104;28;45440;-61
2023/08/04 07:33:15;;;;;;;;;21.00;20.00;;;;;18.62;62.07;101033.59;5020803;28;45554;-61
2023/08/04 07:35:40;;;;;;;;;18.25;16.25;;;;;18.65;62.51;101029.94;5020584;28;45344;-61
2023/08/04 07:38:06;;;;;;;;;25.75;22.00;;;;;18.65;62.43;101024.59;5020530;28;45246;-61
2023/08/04 07:40:31;;;;;;;;;21.25;19.00;;;;;18.73;62.02;101035.81;5020516;28;45305;-61
2023/08/04 07:42:56;;;;;;;;;24.00;20.50;;;;;18.74;61.82;101045.53;5002808;28;49856;-61
2023/08/04 07:45:21;;;;;;;;;22.00;20.00;;;;;18.80;62.28;101045.25;5019950;28;59633;-61
2023/08/04 07:47:47;;;;;;;;;20.25;18.75;;;;;18.84;62.34;101045.97;5020696;28;45254;-61
2023/08/04 07:50:12;;;;;;;;;26.00;21.00;;;;;18.86;62.10;101046.78;5002899;28;45295;-61
2023/08/04 07:52:37;;;;;;;;;18.50;18.50;;;;;18.92;62.33;101049.19;5020570;28;45254;-61
2023/08/04 07:55:03;;;;;;;;;17.75;17.50;;;;;18.96;62.41;101052.59;5019640;28;54132;-61
2023/08/04 07:57:28;;;;;;;;;21.75;18.25;;;;;18.97;62.12;101044.53;5002724;28;45386;-61
2023/08/04 07:59:54;;;;;;;;;19.50;17.25;;;;;19.06;62.17;101050.38;5035177;28;45878;-61
2023/08/04 08:02:19;;;;;;;;;27.75;26.00;;;;;19.09;62.04;101050.22;5040365;28;45233;-61
2023/08/04 08:04:45;;;;;;;;;19.25;17.00;;;;;19.14;61.82;101057.09;5039998;28;45442;-61
2023/08/04 08:07:10;;;;;;;;;18.00;17.00;;;;;19.20;61.99;101057.75;5038002;28;45202;-61
2023/08/04 08:09:35;;;;;;;;;19.25;17.25;;;;;19.24;62.31;101060.19;5039961;28;45148;-61
2023/08/04 08:12:01;;;;;;;;;22.25;18.50;;;;;19.29;61.81;101060.00;5037957;28;45249;-62
2023/08/04 08:14:26;;;;;;;;;18.25;17.25;;;;;19.33;61.87;101070.44;5039944;28;45503;-61
2023/08/04 08:16:51;;;;;;;;;20.50;15.75;;;;;19.40;62.11;101071.00;5040188;28;45300;-61
2023/08/04 08:19:17;;;;;;;;;21.25;19.75;;;;;19.42;61.86;101069.16;5040083;28;45253;-61
2023/08/04 08:21:43;;;;;;;;;18.00;15.25;;;;;19.48;62.15;101074.22;5021405;28;45515;-62
2023/08/04 08:24:09;;;;;;;;;19.00;15.25;;;;;19.55;62.22;101076.59;5039580;28;46244;-61
2023/08/04 08:26:34;;;;;;;;;12.25;11.25;;;;;19.60;61.85;101078.09;5039781;28;45344;-61
2023/08/04 08:29:01;;;;;;;;;15.75;13.25;;;;;19.66;61.83;101082.28;5040135;28;45328;-61
2023/08/04 08:31:27;;;;;;;;;9.75;9.75;;;;;19.71;62.27;101088.25;5039157;28;45333;-61
2023/08/04 08:33:52;;;;;;;;;12.75;12.75;;;;;19.74;61.73;101085.44;5039695;28;45403;-61
2023/08/04 08:36:19;;;;;;;;;10.50;10.50;;;;;19.78;61.47;101086.16;5021424;28;47307;-61
2023/08/04 08:38:44;;;;;;;;;9.50;6.75;;;;;19.81;62.05;101092.22;5039787;28;45241;-62
2023/08/04 08:41:11;;;;;;;;;11.00;11.00;;;;;19.84;61.97;101096.56;5039634;28;45639;-61
2023/08/04 08:43:37;;;;;;;;;15.75;13.25;;;;;19.87;61.85;101090.22;5039670;28;47459;-61
2023/08/04 08:46:03;;;;;;;;;13.25;11.00;;;;;19.93;61.50;101089.94;5039643;28;45365;-61
2023/08/04 08:48:32;;;;;;;;;13.75;12.75;;;;;19.92;61.82;101093.53;5039598;28;45506;-61
2023/08/04 08:51:02;;;;;;;;;9.50;6.75;;;;;20.01;61.23;101098.41;5038729;28;45345;-61
2023/08/04 08:53:31;;;;;;;;;9.25;9.25;;;;;20.06;61.54;101104.41;5039300;28;45440;-61
2023/08/04 08:55:59;;;;;;;;;13.00;10.00;;;;;20.11;61.71;101099.72;5038558;28;45388;-61
2023/08/04 08:58:30;;;;;;;;;12.75;11.00;;;;;20.17;61.64;101101.22;5038534;28;45303;-62
2023/08/04 09:00:56;;;;;;;;;10.00;10.00;;;;;20.20;61.25;101103.75;5039460;28;45329;-61
2023/08/04 09:03:21;;;;;;;;;12.25;10.00;;;;;20.27;61.58;101109.63;5039244;28;46239;-61
2023/08/04 09:05:47;;;;;;;;;10.25;9.00;;;;;20.32;61.47;101104.06;5039178;28;52998;-61
2023/08/04 09:08:12;;;;;;;;;8.50;8.50;;;;;20.39;61.62;101108.16;5039270;28;46027;-62
2023/08/04 09:10:38;;;;;;;;;10.00;9.00;;;;;20.45;61.57;101116.72;5039446;28;45419;-61
2023/08/04 09:13:08;;;;;;;;;10.50;10.50;;;;;20.50;61.42;101123.63;5038378;28;46105;-61
2023/08/04 09:15:35;;;;;;;;;12.00;9.25;;;;;20.55;61.43;101124.28;5039551;28;45287;-61
2023/08/04 09:18:05;;;;;;;;;14.75;11.50;;;;;20.60;60.95;101124.91;5039249;28;45278;-61
2023/08/04 09:20:30;;;;;;;;;10.50;9.75;;;;;20.66;60.82;101127.25;5039220;28;45257;-61
2023/08/04 09:22:56;;;;;;;;;10.50;8.50;;;;;20.70;61.32;101120.81;5038703;28;46288;-61
2023/08/04 09:25:21;;;;;;;;;10.75;10.50;;;;;20.73;60.66;101123.38;5041483;28;45225;-61
2023/08/04 09:27:50;;;;;;;;;9.75;9.75;;;;;20.83;60.82;101128.25;5042735;28;45260;-61
2023/08/04 09:30:17;;;;;;;;;11.75;9.25;;;;;20.89;60.75;101134.16;5042649;28;45425;-61
2023/08/04 09:32:49;;;;;;;;;8.25;7.50;;;;;20.94;60.61;101125.88;5042362;28;46278;-62
2023/08/04 09:35:14;;;;;;;;;10.00;7.00;;;;;21.02;60.71;101129.03;5024504;28;45387;-61
2023/08/04 09:37:40;;;;;;;;;8.50;8.00;;;;;21.10;60.39;101131.28;5042605;28;45542;-61
2023/08/04 09:40:14;;;;;;;;;11.75;10.75;;;;;21.18;60.60;101130.88;5042302;28;45539;-61
2023/08/04 09:42:43;;;;;;;;;10.50;10.00;;;;;21.27;60.38;101127.75;5042327;28;45337;-62
2023/08/04 09:45:13;;;;;;;;;11.75;9.00;;;;;21.35;60.04;101133.53;5042307;28;45333;-61
2023/08/04 09:47:38;;;;;;;;;11.00;9.00;;;;;21.41;59.95;101127.88;5042541;28;45301;-61
2023/08/04 09:50:09;;;;;;;;;10.75;10.25;;;;;21.49;60.40;101116.75;5034502;28;45541;-62
2023/08/04 09:52:35;;;;;;;;;8.75;8.75;;;;;21.57;59.99;101106.53;5022314;28;47042;-62
2023/08/04 09:55:00;;;;;;;;;11.25;9.00;;;;;21.68;60.09;101110.44;5021746;28;45178;-62
2023/08/04 09:57:26;;;;;;;;;12.00;9.00;;;;;21.77;59.86;101107.25;5022498;28;45197;-62
2023/08/04 09:59:52;;;;;;;;;10.75;9.75;;;;;21.86;59.62;101101.41;5036585;28;45460;-62
2023/08/04 10:02:18;;;;;;;;;9.00;9.00;;;;;21.94;59.32;101113.44;5042238;28;45221;-61
2023/08/04 10:04:51;;;;;;;;;6.25;6.25;;;;;22.01;59.37;101110.38;5042036;28;45388;-61
2023/08/04 10:07:20;;;;;;;;;20.75;16.75;;;;;22.10;59.42;101111.66;5042153;28;45420;-61
2023/08/04 10:09:47;;;;;;;;;9.50;9.50;;;;;22.17;59.64;101112.16;5041747;28;45371;-62
2023/08/04 10:12:14;;;;;;;;;7.50;6.75;;;;;22.24;59.18;101105.53;5041819;28;45435;-62
2023/08/04 10:14:40;;;;;;;;;11.00;8.75;;;;;22.32;59.22;101108.59;5041880;28;45229;-61
2023/08/04 10:17:06;;;;;;;;;11.50;9.00;;;;;22.39;59.08;101118.03;5042139;28;45640;-61
2023/08/04 10:19:33;;;;;;;;;10.75;9.00;;;;;22.44;58.95;101115.09;5041929;28;45257;-61
2023/08/04 10:22:09;;;;;;;;;9.00;6.75;;;;;22.49;58.81;101106.78;5041631;28;45273;-61
2023/08/04 10:24:36;;;;;;;;;6.00;6.00;;;;;22.52;58.43;101114.66;5041499;28;45439;-62
2023/08/04 10:27:18;;;;;;;;;9.25;7.50;;;;;22.54;58.29;101107.38;5041077;28;45252;-61
2023/08/04 10:29:43;;;;;;;;;9.00;8.00;;;;;22.54;58.27;101105.56;5041807;28;45265;-61
2023/08/04 10:32:09;;;;;;;;;7.00;6.00;;;;;22.60;58.17;101098.13;5041477;28;46199;-61
2023/08/04 10:34:42;;;;;;;;;7.75;6.50;;;;;22.68;58.58;101103.91;5041130;28;45335;-61
2023/08/04 10:37:17;;;;;;;;;8.50;8.50;;;;;22.80;58.10;101099.63;5041821;28;45206;-61
2023/08/04 10:40:01;;;;;;;;;11.25;10.00;;;;;22.99;58.39;101099.34;5041375;28;45471;-62
2023/08/04 10:42:29;;;;;;;;;7.00;6.50;;;;;23.17;59.11;101100.94;5041268;28;47153;-61
2023/08/04 10:45:08;;;;;;;;;8.00;8.00;;;;;23.54;58.89;101098.63;5041369;28;45364;-61
2023/08/04 10:47:40;;;;;;;;;7.00;7.00;;;;;23.87;59.07;101107.31;5041678;28;45324;-61
2023/08/04 10:50:07;;;;;;;;;8.50;8.50;;;;;24.13;58.74;101097.59;5041299;28;45297;-62
2023/08/04 10:52:33;;;;;;;;;5.25;5.25;;;;;24.42;58.72;101105.53;5041217;28;46396;-62
2023/08/04 10:54:59;;;;;;;;;7.00;7.00;;;;;24.63;58.53;101113.97;5040512;28;45254;-61
2023/08/04 10:57:30;;;;;;;;;5.00;5.00;;;;;24.79;57.63;101111.16;5040663;28;45409;-62
2023/08/04 10:59:56;;;;;;;;;9.75;7.00;;;;;24.89;57.11;101106.00;5041263;28;45333;-61
2023/08/04 11:02:23;;;;;;;;;6.00;4.75;;;;;24.93;56.96;101103.94;5041089;28;45289;-62
2023/08/04 11:04:51;;;;;;;;;7.75;7.75;;;;;24.92;56.59;101094.19;5041100;28;45954;-61
2023/08/04 11:07:17;;;;;;;;;8.75;7.00;;;;;24.91;56.43;101105.88;5041306;28;45230;-62
2023/08/04 11:09:45;;;;;;;;;8.00;6.75;;;;;24.87;56.47;101107.91;5040825;28;45178;-61
2023/08/04 11:12:11;;;;;;;;;4.50;3.50;;;;;24.83;55.82;101103.72;5040774;28;46309;-62